createdAt,value
2017-12-22T00:02:28.441Z,7.80
2017-12-22T00:04:57.071Z,7.80
2017-12-22T00:07:24.556Z,7.70
2017-12-22T00:09:52.012Z,7.70
2017-12-22T00:12:21.088Z,7.70
2017-12-22T00:14:49.382Z,7.70
2017-12-22T00:17:16.948Z,7.80
2017-12-22T00:19:44.437Z,7.70
2017-12-22T00:22:14.765Z,7.70
2017-12-22T00:24:42.236Z,7.70
2017-12-22T00:27:09.728Z,7.70
2017-12-22T00:29:37.271Z,7.70
2017-12-22T00:32:04.742Z,7.70
2017-12-22T00:34:32.228Z,7.60
2017-12-22T00:36:59.671Z,7.70
2017-12-22T00:39:27.138Z,7.70
2017-12-22T00:41:54.589Z,7.70
2017-12-22T00:44:22.211Z,7.70
2017-12-22T00:46:49.679Z,7.70
2017-12-22T00:49:17.919Z,7.70
2017-12-22T00:51:46.075Z,7.80
2017-12-22T00:54:13.540Z,7.70
2017-12-22T00:56:41.016Z,7.60
2017-12-22T00:59:08.472Z,7.50
2017-12-22T01:01:35.972Z,7.60
2017-12-22T01:04:03.439Z,7.60
2017-12-22T01:06:30.941Z,7.60
2017-12-22T01:08:58.436Z,7.60
2017-12-22T01:11:25.896Z,7.60
2017-12-22T01:13:53.557Z,7.50
2017-12-22T01:16:26.742Z,7.60
2017-12-22T01:19:00.076Z,7.70
2017-12-22T01:21:27.665Z,7.60
2017-12-22T01:23:55.157Z,7.60
2017-12-22T01:26:22.783Z,7.60
2017-12-22T01:28:50.265Z,7.60
2017-12-22T01:31:17.780Z,7.50
2017-12-22T01:33:46.013Z,7.60
2017-12-22T01:36:14.257Z,7.50
2017-12-22T01:38:41.751Z,7.50
2017-12-22T01:41:09.328Z,7.60
2017-12-22T01:43:40.677Z,7.60
2017-12-22T01:46:08.647Z,7.60
2017-12-22T01:48:36.419Z,7.50
2017-12-22T01:51:04.013Z,7.50
2017-12-22T01:53:31.564Z,7.50
2017-12-22T01:55:59.400Z,7.50
2017-12-22T01:58:26.983Z,7.50
2017-12-22T02:00:54.444Z,7.50
2017-12-22T02:03:21.906Z,7.50
2017-12-22T02:05:49.430Z,7.50
2017-12-22T02:08:16.883Z,7.50
2017-12-22T02:10:44.456Z,7.50
2017-12-22T02:13:11.996Z,7.60
2017-12-22T02:15:39.504Z,7.60
2017-12-22T02:18:06.999Z,7.60
2017-12-22T02:20:35.632Z,7.50
2017-12-22T02:23:03.142Z,7.50
2017-12-22T02:25:30.704Z,7.60
2017-12-22T02:27:58.327Z,7.70
2017-12-22T02:30:25.887Z,7.60
2017-12-22T02:32:53.443Z,7.60
2017-12-22T02:35:20.945Z,7.70
2017-12-22T02:37:48.519Z,7.80
2017-12-22T02:40:15.962Z,7.80
2017-12-22T02:42:43.488Z,7.70
2017-12-22T02:45:11.742Z,7.70
2017-12-22T02:47:39.269Z,7.80
2017-12-22T02:50:07.502Z,7.80
2017-12-22T02:52:35.054Z,7.80
2017-12-22T02:55:02.602Z,7.80
2017-12-22T02:57:30.884Z,7.70
2017-12-22T02:59:58.368Z,7.70
2017-12-22T03:02:26.627Z,7.70
2017-12-22T03:04:54.164Z,7.60
2017-12-22T03:07:21.735Z,7.60
2017-12-22T03:09:49.196Z,7.50
2017-12-22T03:12:16.699Z,7.50
2017-12-22T03:14:45.043Z,7.50
2017-12-22T03:17:12.577Z,7.50
2017-12-22T03:19:40.155Z,7.50
2017-12-22T03:22:07.621Z,7.40
2017-12-22T03:24:35.197Z,7.50
2017-12-22T03:27:02.717Z,7.50
2017-12-22T03:29:30.181Z,7.40
2017-12-22T03:31:57.681Z,7.50
2017-12-22T03:34:25.311Z,7.50
2017-12-22T03:36:52.872Z,7.50
2017-12-22T03:39:20.427Z,7.50
2017-12-22T03:41:48.041Z,7.50
2017-12-22T03:44:15.736Z,7.40
2017-12-22T03:46:43.224Z,7.40
2017-12-22T03:49:10.743Z,7.40
2017-12-22T03:51:38.268Z,7.40
2017-12-22T03:54:05.770Z,7.40
2017-12-22T03:56:33.314Z,7.40
2017-12-22T03:59:01.026Z,7.40
2017-12-22T04:01:28.612Z,7.40
2017-12-22T04:03:57.157Z,7.40
2017-12-22T04:06:25.397Z,7.40
2017-12-22T04:08:52.972Z,7.40
2017-12-22T04:11:20.557Z,7.40
2017-12-22T04:19:53.783Z,7.50
2017-12-22T04:22:22.459Z,7.60
2017-12-22T04:24:50.022Z,7.50
2017-12-22T04:27:17.524Z,7.60
2017-12-22T04:29:45.055Z,7.60
2017-12-22T04:32:12.669Z,7.60
2017-12-22T04:37:25.781Z,7.60
2017-12-22T04:40:08.691Z,7.60
2017-12-22T04:48:30.248Z,7.40
2017-12-22T04:50:58.396Z,7.40
2017-12-22T04:53:26.030Z,7.50
2017-12-22T04:55:53.586Z,7.50
2017-12-22T04:58:21.104Z,7.60
2017-12-22T05:00:48.654Z,7.70
2017-12-22T05:03:16.160Z,7.70
2017-12-22T05:05:43.665Z,7.70
2017-12-22T05:08:11.193Z,7.70
2017-12-22T05:10:39.475Z,7.60
2017-12-22T05:13:06.981Z,7.50
2017-12-22T05:15:34.460Z,7.60
2017-12-22T05:18:01.898Z,7.60
2017-12-22T05:20:29.428Z,7.60
2017-12-22T05:22:56.899Z,7.60
2017-12-22T05:25:29.235Z,7.60
2017-12-22T05:27:56.687Z,7.70
2017-12-22T05:30:24.194Z,7.70
2017-12-22T05:32:51.670Z,7.70
2017-12-22T05:35:19.111Z,7.60
2017-12-22T05:37:46.580Z,7.60
2017-12-22T05:40:14.040Z,7.50
2017-12-22T05:42:41.483Z,7.40
2017-12-22T05:45:08.957Z,7.40
2017-12-22T05:47:37.100Z,7.40
2017-12-22T05:50:04.601Z,7.40
2017-12-22T05:52:32.160Z,7.50
2017-12-22T05:55:00.323Z,7.40
2017-12-22T05:57:28.102Z,7.50
2017-12-22T05:59:56.345Z,7.50
2017-12-22T06:02:23.822Z,7.50
2017-12-22T06:04:51.304Z,7.60
2017-12-22T06:07:18.768Z,7.60
2017-12-22T06:09:46.984Z,7.60
2017-12-22T06:12:14.495Z,7.60
2017-12-22T06:14:42.417Z,7.60
2017-12-22T06:17:10.260Z,7.60
2017-12-22T06:19:38.544Z,7.60
2017-12-22T06:22:06.394Z,7.60
2017-12-22T06:24:33.889Z,7.50
2017-12-22T06:27:01.338Z,7.50
2017-12-22T06:29:29.651Z,7.60
2017-12-22T06:31:57.356Z,7.50
2017-12-22T06:34:24.860Z,7.60
2017-12-22T06:36:52.301Z,7.60
2017-12-22T06:39:20.911Z,7.60
2017-12-22T06:41:48.418Z,7.60
2017-12-22T06:44:15.942Z,7.60
2017-12-22T06:46:43.444Z,7.50
2017-12-22T06:49:11.830Z,7.60
2017-12-22T06:51:39.442Z,7.60
2017-12-22T06:54:07.817Z,7.60
2017-12-22T06:56:36.380Z,7.60
2017-12-22T06:59:05.507Z,7.60
2017-12-22T07:01:33.797Z,7.70
2017-12-22T07:04:01.362Z,7.70
2017-12-22T07:06:32.592Z,7.70
2017-12-22T07:09:00.071Z,7.70
2017-12-22T07:11:27.608Z,7.70
2017-12-22T07:13:55.942Z,7.70
2017-12-22T07:16:23.440Z,7.70
2017-12-22T07:18:51.001Z,7.70
2017-12-22T07:21:18.491Z,7.70
2017-12-22T07:23:46.009Z,7.70
2017-12-22T07:26:14.285Z,7.60
2017-12-22T07:28:41.748Z,7.60
2017-12-22T07:31:09.204Z,7.60
2017-12-22T07:33:37.213Z,7.70
2017-12-22T07:36:04.773Z,7.70
2017-12-22T07:38:32.335Z,7.70
2017-12-22T07:40:59.938Z,7.70
2017-12-22T07:43:27.495Z,7.70
2017-12-22T07:45:55.149Z,7.60
2017-12-22T07:48:22.695Z,7.60
2017-12-22T07:50:50.231Z,7.70
2017-12-22T07:53:17.680Z,7.60
2017-12-22T07:55:45.131Z,7.70
2017-12-22T07:58:12.580Z,7.60
2017-12-22T08:00:40.101Z,7.70
2017-12-22T08:03:07.563Z,7.80
2017-12-22T08:05:35.787Z,7.80
2017-12-22T08:08:03.941Z,7.70
2017-12-22T08:10:32.275Z,7.70
2017-12-22T08:12:59.769Z,7.70
2017-12-22T08:15:27.236Z,7.70
2017-12-22T08:17:54.787Z,7.70
2017-12-22T08:20:22.253Z,7.70
2017-12-22T08:22:49.804Z,7.70
2017-12-22T08:25:17.341Z,7.70
2017-12-22T08:27:44.838Z,7.70
2017-12-22T08:30:12.282Z,7.70
2017-12-22T08:32:39.847Z,7.80
2017-12-22T08:35:08.460Z,7.70
2017-12-22T08:37:36.000Z,7.70
2017-12-22T08:40:03.452Z,7.70
2017-12-22T08:42:30.930Z,7.70
2017-12-22T08:44:58.626Z,7.70
2017-12-22T08:47:28.016Z,7.70
2017-12-22T08:49:55.472Z,7.70
2017-12-22T08:52:23.022Z,7.80
2017-12-22T08:54:50.531Z,7.80
2017-12-22T08:57:21.992Z,7.70
2017-12-22T08:59:49.536Z,7.70
2017-12-22T09:02:17.428Z,7.80
2017-12-22T09:04:45.018Z,7.80
2017-12-22T09:07:12.543Z,7.90
2017-12-22T09:09:40.068Z,7.90
2017-12-22T09:12:07.530Z,7.80
2017-12-22T09:14:35.020Z,7.70
2017-12-22T09:17:02.684Z,7.80
2017-12-22T09:19:34.861Z,7.90
2017-12-22T09:22:03.103Z,7.90
2017-12-22T09:24:35.769Z,7.90
2017-12-22T09:27:03.495Z,8.00
2017-12-22T09:29:31.226Z,8.10
2017-12-22T09:31:59.576Z,8.10
2017-12-22T09:47:18.763Z,8.10
2017-12-22T09:59:27.213Z,8.00
2017-12-22T10:01:55.640Z,8.20
2017-12-22T10:04:23.169Z,8.20
2017-12-22T10:06:50.911Z,8.20
2017-12-22T10:09:18.723Z,8.20
2017-12-22T10:11:50.790Z,8.40
2017-12-22T10:14:19.280Z,8.40
2017-12-22T10:16:51.373Z,8.20
2017-12-22T10:19:18.887Z,8.40
2017-12-22T10:21:46.544Z,8.40
2017-12-22T10:24:15.376Z,8.50
2017-12-22T10:26:43.653Z,8.40
2017-12-22T10:29:15.945Z,8.50
2017-12-22T10:31:43.528Z,8.50
2017-12-22T10:43:55.811Z,8.50
2017-12-22T10:46:24.071Z,8.60
2017-12-22T10:48:51.551Z,8.60
2017-12-22T10:51:19.285Z,8.60
2017-12-22T10:53:47.494Z,8.60
2017-12-22T10:56:20.724Z,8.60
2017-12-22T10:58:49.002Z,8.40
2017-12-22T11:01:17.292Z,8.30
2017-12-22T11:13:25.068Z,8.40
2017-12-22T11:15:53.836Z,8.50
2017-12-22T11:18:22.194Z,8.50
2017-12-22T11:20:50.546Z,8.60
2017-12-22T11:32:58.403Z,8.60
2017-12-22T11:35:26.663Z,8.50
2017-12-22T11:37:54.779Z,8.50
2017-12-22T11:53:12.711Z,8.60
2017-12-22T12:08:31.767Z,9.30
2017-12-22T12:11:00.039Z,9.30
2017-12-22T12:23:07.764Z,9.20
2017-12-22T12:25:36.097Z,9.00
2017-12-22T12:37:43.872Z,9.00
2017-12-22T12:40:15.571Z,9.10
2017-12-22T12:55:33.034Z,9.00
2017-12-22T12:58:00.720Z,9.20
2017-12-22T13:10:08.205Z,9.20
2017-12-22T13:25:29.761Z,9.20
2017-12-22T13:27:57.472Z,9.10
2017-12-22T13:43:16.120Z,9.20
2017-12-22T13:55:23.607Z,9.10
2017-12-22T13:57:51.137Z,9.00
2017-12-22T14:00:19.461Z,9.10
2017-12-22T14:02:48.301Z,9.10
2017-12-22T14:05:19.405Z,9.20
2017-12-22T14:07:47.634Z,9.30
2017-12-22T14:19:59.948Z,9.30
2017-12-22T14:22:28.291Z,9.40
2017-12-22T14:25:00.966Z,9.30
2017-12-22T14:27:29.164Z,9.30
2017-12-22T14:29:57.537Z,9.30
2017-12-22T14:32:25.690Z,9.30
2017-12-22T14:34:53.612Z,9.20
2017-12-22T14:47:01.384Z,9.20
2017-12-22T14:49:29.294Z,9.20
2017-12-22T15:01:37.108Z,9.10
2017-12-22T15:04:08.448Z,9.30
2017-12-22T15:06:35.999Z,9.20
2017-12-22T15:09:03.798Z,9.20
2017-12-22T15:11:31.242Z,9.20
2017-12-22T15:13:59.175Z,9.20
2017-12-22T15:16:30.325Z,9.20
2017-12-22T15:18:57.912Z,9.20
2017-12-22T15:21:25.386Z,9.20
2017-12-22T15:23:52.868Z,9.20
2017-12-22T15:26:21.144Z,9.20
2017-12-22T15:28:48.877Z,9.20
2017-12-22T15:44:07.460Z,9.20
2017-12-22T15:46:34.964Z,9.10
2017-12-22T15:49:03.502Z,8.90
2017-12-22T16:01:12.676Z,8.80
2017-12-22T16:03:40.618Z,9.00
2017-12-22T16:06:08.794Z,8.80
2017-12-22T16:08:36.452Z,8.90
2017-12-22T16:11:04.379Z,8.90
2017-12-22T16:23:12.076Z,8.90
2017-12-22T16:25:39.791Z,9.00
2017-12-22T16:28:07.272Z,9.00
2017-12-22T16:30:35.832Z,9.00
2017-12-22T16:33:03.544Z,9.00
2017-12-22T16:35:31.049Z,9.00
2017-12-22T16:37:58.728Z,8.90
2017-12-22T16:40:27.059Z,8.80
2017-12-22T16:42:54.577Z,8.90
2017-12-22T16:45:22.117Z,9.00
2017-12-22T16:47:49.556Z,9.00
2017-12-22T16:59:57.019Z,9.00
2017-12-22T17:02:25.482Z,8.80
2017-12-22T17:04:53.721Z,8.90
2017-12-22T17:07:21.208Z,8.90
2017-12-22T17:09:48.931Z,9.00
2017-12-22T17:12:17.501Z,8.90
2017-12-22T17:27:36.422Z,8.90
2017-12-22T17:30:07.863Z,8.90
2017-12-22T17:32:35.320Z,8.90
2017-12-22T17:35:02.763Z,8.80
2017-12-22T17:37:30.575Z,8.70
2017-12-22T17:39:59.614Z,8.80
2017-12-22T17:42:27.057Z,8.80
2017-12-22T17:57:44.779Z,8.80
2017-12-22T18:00:12.999Z,9.00
2017-12-22T18:02:41.180Z,9.00
2017-12-22T18:17:58.856Z,9.10
2017-12-22T18:20:26.825Z,9.10
2017-12-22T18:22:54.349Z,9.10
2017-12-22T18:38:20.407Z,9.10
2017-12-22T18:40:51.095Z,9.00
2017-12-22T18:43:18.991Z,8.90
2017-12-22T18:58:36.876Z,8.80
2017-12-22T19:10:46.008Z,9.10
2017-12-22T19:13:18.490Z,9.10
2017-12-22T19:15:47.590Z,9.10
2017-12-22T19:27:55.858Z,9.20
2017-12-22T19:40:03.659Z,9.00
2017-12-22T19:42:31.906Z,9.10
2017-12-22T19:45:00.163Z,9.10
2017-12-22T19:47:27.696Z,9.20
2017-12-22T19:49:55.915Z,9.20
2017-12-22T19:52:23.612Z,9.10
2017-12-22T19:54:51.068Z,9.10
2017-12-22T19:57:18.837Z,9.20
2017-12-22T19:59:47.790Z,9.20
2017-12-22T20:02:15.491Z,9.10
2017-12-22T20:04:42.961Z,9.10
2017-12-22T20:16:50.589Z,9.10
2017-12-22T20:19:18.399Z,9.10
2017-12-22T20:31:25.855Z,9.10
2017-12-22T20:33:53.658Z,9.00
2017-12-22T20:36:21.129Z,9.00
2017-12-22T20:38:52.500Z,8.90
2017-12-22T20:41:20.742Z,9.00
2017-12-22T20:43:49.149Z,8.90
2017-12-22T20:46:17.425Z,8.90
2017-12-22T20:48:45.095Z,8.90
2017-12-22T20:51:12.895Z,8.90
2017-12-22T20:53:40.484Z,8.90
2017-12-22T20:56:08.233Z,9.00
2017-12-22T20:58:35.802Z,9.00
2017-12-22T21:01:04.884Z,9.10
2017-12-22T21:03:32.324Z,9.00
2017-12-22T21:06:03.806Z,9.10
2017-12-22T21:08:31.363Z,9.10
2017-12-22T21:23:49.791Z,9.00
2017-12-22T21:26:17.640Z,9.00
2017-12-22T21:28:45.188Z,9.10
2017-12-22T21:31:12.946Z,9.20
2017-12-22T21:33:40.408Z,9.10
2017-12-22T21:36:07.902Z,9.10
2017-12-22T21:51:26.250Z,9.10
2017-12-22T21:53:54.507Z,9.00
2017-12-22T21:56:22.273Z,9.00
2017-12-22T21:58:49.921Z,9.00
2017-12-22T22:10:57.391Z,9.10
2017-12-22T22:13:25.067Z,9.00
2017-12-22T22:15:52.543Z,9.00
2017-12-22T22:18:20.403Z,9.00
2017-12-22T22:20:48.664Z,9.00
2017-12-22T22:23:16.398Z,9.00
2017-12-22T22:25:44.289Z,9.00
2017-12-22T22:28:13.272Z,9.00
2017-12-22T22:40:20.740Z,9.00
2017-12-22T22:42:48.251Z,8.60
2017-12-22T22:45:15.759Z,8.40
2017-12-22T22:47:44.224Z,8.60
2017-12-22T22:50:11.700Z,8.60
2017-12-22T22:52:39.221Z,8.70
2017-12-22T23:04:46.665Z,8.60
2017-12-22T23:20:04.531Z,8.70
2017-12-22T23:22:32.051Z,8.60
2017-12-22T23:25:00.657Z,8.60
2017-12-22T23:27:28.446Z,8.60
2017-12-22T23:29:55.989Z,8.60
2017-12-22T23:32:23.471Z,8.60
2017-12-22T23:34:51.704Z,8.50
2017-12-22T23:37:19.200Z,8.50
2017-12-22T23:39:46.664Z,8.50
2017-12-22T23:42:15.127Z,8.40
2017-12-22T23:44:43.057Z,8.40
2017-12-22T23:47:10.749Z,8.40
2017-12-22T23:49:38.298Z,8.50
2017-12-22T23:52:05.825Z,8.40
